createdAt,value
2019-03-27T00:00:47.551Z,8.33
2019-03-27T00:01:47.548Z,8.40
2019-03-27T00:03:40.455Z,8.43
2019-03-27T00:04:40.461Z,8.43
2019-03-27T00:06:33.870Z,8.44
2019-03-27T00:07:33.864Z,8.43
2019-03-27T00:09:27.268Z,8.45
2019-03-27T00:10:27.281Z,8.43
2019-03-27T00:12:20.185Z,8.47
2019-03-27T00:13:20.185Z,8.43
2019-03-27T00:15:13.936Z,8.47
2019-03-27T00:16:13.100Z,8.55
2019-03-27T00:18:06.003Z,8.48
2019-03-27T00:19:06.008Z,8.53
2019-03-27T00:20:58.913Z,8.45
2019-03-27T00:21:58.915Z,8.55
2019-03-27T00:23:51.818Z,8.47
2019-03-27T00:24:51.832Z,8.47
2019-03-27T00:26:44.732Z,8.50
2019-03-27T00:27:44.734Z,8.55
2019-03-27T00:29:38.204Z,8.48
2019-03-27T00:30:38.156Z,8.48
2019-03-27T00:32:31.057Z,8.43
2019-03-27T00:33:31.059Z,8.40
2019-03-27T00:35:23.977Z,8.52
2019-03-27T00:36:23.973Z,8.33
2019-03-27T00:38:16.869Z,8.40
2019-03-27T00:39:16.878Z,8.40
2019-03-27T00:41:09.795Z,8.37
2019-03-27T00:42:09.792Z,8.36
2019-03-27T00:44:02.692Z,8.30
2019-03-27T00:45:02.703Z,8.26
2019-03-27T00:46:55.608Z,8.33
2019-03-27T00:47:55.610Z,8.28
2019-03-27T00:49:48.522Z,8.37
2019-03-27T00:50:48.533Z,8.34
2019-03-27T00:52:41.433Z,8.36
2019-03-27T00:53:41.437Z,8.34
2019-03-27T00:55:34.350Z,8.28
2019-03-27T00:56:34.350Z,8.34
2019-03-27T00:58:27.250Z,8.25
2019-03-27T00:59:27.264Z,8.26
2019-03-27T01:01:20.170Z,8.23
2019-03-27T01:02:20.169Z,8.19
2019-03-27T01:04:13.071Z,8.20
2019-03-27T01:05:13.078Z,8.26
2019-03-27T01:07:05.990Z,8.18
2019-03-27T01:08:05.986Z,8.36
2019-03-27T01:09:58.909Z,8.30
2019-03-27T01:10:58.901Z,8.19
2019-03-27T01:12:51.817Z,8.22
2019-03-27T01:13:51.808Z,8.18
2019-03-27T01:15:44.712Z,8.19
2019-03-27T01:16:44.716Z,8.22
2019-03-27T01:18:37.618Z,8.23
2019-03-27T01:19:37.624Z,8.18
2019-03-27T01:21:30.538Z,8.19
2019-03-27T01:22:30.539Z,8.20
2019-03-27T01:24:23.438Z,8.20
2019-03-27T01:25:23.447Z,8.23
2019-03-27T01:27:16.357Z,8.20
2019-03-27T01:28:16.358Z,8.22
2019-03-27T01:30:09.749Z,8.22
2019-03-27T01:31:09.761Z,8.16
2019-03-27T01:33:02.681Z,8.23
2019-03-27T01:34:02.673Z,8.20
2019-03-27T01:35:56.069Z,8.23
2019-03-27T01:36:56.076Z,8.19
2019-03-27T01:38:48.992Z,8.12
2019-03-27T01:39:48.988Z,8.11
2019-03-27T01:41:41.893Z,8.16
2019-03-27T01:42:41.897Z,8.07
2019-03-27T01:44:34.798Z,8.07
2019-03-27T01:45:34.807Z,8.02
2019-03-27T01:47:27.720Z,8.12
2019-03-27T01:48:27.716Z,8.12
2019-03-27T01:50:20.621Z,8.18
2019-03-27T01:51:20.626Z,8.20
2019-03-27T01:53:13.533Z,8.15
2019-03-27T01:54:13.534Z,8.18
2019-03-27T01:56:06.435Z,8.22
2019-03-27T01:57:06.439Z,8.22
2019-03-27T01:58:59.344Z,8.10
2019-03-27T01:59:59.348Z,8.01
2019-03-27T02:01:52.252Z,8.01
2019-03-27T02:02:52.254Z,7.95
2019-03-27T02:04:45.166Z,7.97
2019-03-27T02:05:45.170Z,7.87
2019-03-27T02:07:38.076Z,7.86
2019-03-27T02:08:38.080Z,7.80
2019-03-27T02:10:30.979Z,7.85
2019-03-27T02:11:30.988Z,7.71
2019-03-27T02:13:23.888Z,7.86
2019-03-27T02:14:23.892Z,7.85
2019-03-27T02:16:16.795Z,7.86
2019-03-27T02:17:16.799Z,7.92
2019-03-27T02:19:09.699Z,7.89
2019-03-27T02:20:09.707Z,7.89
2019-03-27T02:22:02.613Z,7.87
2019-03-27T02:23:02.614Z,7.79
2019-03-27T02:24:55.523Z,7.86
2019-03-27T02:25:55.530Z,7.89
2019-03-27T02:27:48.437Z,7.93
2019-03-27T02:28:48.433Z,7.89
2019-03-27T02:30:41.337Z,7.89
2019-03-27T02:31:41.344Z,7.90
2019-03-27T02:33:34.245Z,7.95
2019-03-27T02:34:34.251Z,7.93
2019-03-27T02:36:27.158Z,7.95
2019-03-27T02:37:27.159Z,7.90
2019-03-27T02:39:20.053Z,8.02
2019-03-27T02:40:20.073Z,7.98
2019-03-27T02:42:12.975Z,8.00
2019-03-27T02:43:12.978Z,8.00
2019-03-27T02:45:05.876Z,7.95
2019-03-27T02:46:23.376Z,8.04
2019-03-27T02:47:58.791Z,8.10
2019-03-27T02:48:58.791Z,8.08
2019-03-27T02:50:51.706Z,8.02
2019-03-27T02:51:51.703Z,8.01
2019-03-27T02:53:44.601Z,8.01
2019-03-27T02:54:44.654Z,8.01
2019-03-27T02:56:37.517Z,7.80
2019-03-27T02:57:37.520Z,7.68
2019-03-27T02:59:30.416Z,7.75
2019-03-27T03:00:30.430Z,7.75
2019-03-27T03:02:23.463Z,7.72
2019-03-27T03:03:23.337Z,7.58
2019-03-27T03:05:16.237Z,7.50
2019-03-27T03:06:16.241Z,7.49
2019-03-27T03:08:09.171Z,7.52
2019-03-27T03:09:09.171Z,7.45
2019-03-27T03:11:02.079Z,7.46
2019-03-27T03:12:02.081Z,7.45
2019-03-27T03:13:54.980Z,7.25
2019-03-27T03:14:54.992Z,7.27
2019-03-27T03:16:47.901Z,7.35
2019-03-27T03:17:47.894Z,7.34
2019-03-27T03:19:41.285Z,7.27
2019-03-27T03:20:41.295Z,7.39
2019-03-27T03:22:34.692Z,7.40
2019-03-27T03:23:34.723Z,7.40
2019-03-27T03:25:27.597Z,7.43
2019-03-27T03:26:27.604Z,7.49
2019-03-27T03:28:20.522Z,7.60
2019-03-27T03:29:20.514Z,7.48
2019-03-27T03:31:13.429Z,7.55
2019-03-27T03:32:13.419Z,7.48
2019-03-27T03:34:06.476Z,7.48
2019-03-27T03:35:06.344Z,7.37
2019-03-27T03:36:59.236Z,7.42
2019-03-27T03:37:59.239Z,7.42
2019-03-27T03:39:52.140Z,7.43
2019-03-27T03:40:52.148Z,7.46
2019-03-27T03:42:45.051Z,7.52
2019-03-27T03:43:45.065Z,7.57
2019-03-27T03:45:37.957Z,7.71
2019-03-27T03:46:37.961Z,7.67
2019-03-27T03:48:30.867Z,7.67
2019-03-27T03:49:30.872Z,7.77
2019-03-27T03:51:23.771Z,7.79
2019-03-27T03:52:23.776Z,7.71
2019-03-27T03:54:16.679Z,7.60
2019-03-27T03:55:16.689Z,7.80
2019-03-27T03:57:09.599Z,7.68
2019-03-27T03:58:09.588Z,7.63
2019-03-27T04:00:02.493Z,7.48
2019-03-27T04:01:02.492Z,7.50
2019-03-27T04:02:55.399Z,7.61
2019-03-27T04:03:55.403Z,7.68
2019-03-27T04:05:48.316Z,7.72
2019-03-27T04:06:48.308Z,7.68
2019-03-27T04:08:41.214Z,7.75
2019-03-27T04:09:41.218Z,7.72
2019-03-27T04:11:34.124Z,7.61
2019-03-27T04:12:34.141Z,7.58
2019-03-27T04:14:27.022Z,7.52
2019-03-27T04:15:27.034Z,7.49
2019-03-27T04:17:19.940Z,7.50
2019-03-27T04:18:19.945Z,7.49
2019-03-27T04:20:12.841Z,7.60
2019-03-27T04:21:12.850Z,7.53
2019-03-27T04:23:05.758Z,7.60
2019-03-27T04:24:05.757Z,7.61
2019-03-27T04:26:09.794Z,7.49
2019-03-27T04:26:58.666Z,7.46
2019-03-27T04:28:51.560Z,7.42
2019-03-27T04:29:51.569Z,7.48
2019-03-27T04:31:44.486Z,7.43
2019-03-27T04:32:44.472Z,7.48
2019-03-27T04:34:37.377Z,7.45
2019-03-27T04:35:37.490Z,7.48
2019-03-27T04:37:30.284Z,7.49
2019-03-27T04:38:30.287Z,7.49
2019-03-27T04:40:23.207Z,7.52
2019-03-27T04:41:23.216Z,7.50
2019-03-27T04:43:16.121Z,7.58
2019-03-27T04:44:16.123Z,7.52
2019-03-27T04:46:09.031Z,7.50
2019-03-27T04:47:09.028Z,7.42
2019-03-27T04:49:01.931Z,7.39
2019-03-27T04:50:01.938Z,7.43
2019-03-27T04:51:54.858Z,7.43
2019-03-27T04:52:54.849Z,7.40
2019-03-27T04:54:47.745Z,7.52
2019-03-27T04:55:47.756Z,7.57
2019-03-27T04:57:40.658Z,7.50
2019-03-27T04:58:40.662Z,7.60
2019-03-27T05:00:33.557Z,7.67
2019-03-27T05:01:33.566Z,7.58
2019-03-27T05:03:26.471Z,7.69
2019-03-27T05:04:26.473Z,7.52
2019-03-27T05:06:19.378Z,7.58
2019-03-27T05:07:19.381Z,7.63
2019-03-27T05:09:12.288Z,7.61
2019-03-27T05:10:12.356Z,7.68
2019-03-27T05:12:05.191Z,7.71
2019-03-27T05:13:05.194Z,7.69
2019-03-27T05:14:58.089Z,7.64
2019-03-27T05:15:58.099Z,7.67
2019-03-27T05:17:51.016Z,7.50
2019-03-27T05:18:51.010Z,7.46
2019-03-27T05:20:43.908Z,7.40
2019-03-27T05:21:43.916Z,7.42
2019-03-27T05:23:36.823Z,7.32
2019-03-27T05:24:36.822Z,7.34
2019-03-27T05:26:29.726Z,7.43
2019-03-27T05:27:29.728Z,7.40
2019-03-27T05:29:22.648Z,7.40
2019-03-27T05:30:22.639Z,7.45
2019-03-27T05:32:15.545Z,7.49
2019-03-27T05:33:15.552Z,7.52
2019-03-27T05:35:08.447Z,7.53
2019-03-27T05:36:08.455Z,7.58
2019-03-27T05:38:01.370Z,7.61
2019-03-27T05:39:01.363Z,7.71
2019-03-27T05:40:54.260Z,7.69
2019-03-27T05:41:54.269Z,7.61
2019-03-27T05:43:47.178Z,7.63
2019-03-27T05:44:47.181Z,7.63
2019-03-27T05:46:40.085Z,7.52
2019-03-27T05:47:40.088Z,7.49
2019-03-27T05:49:32.982Z,7.49
2019-03-27T05:50:32.996Z,7.50
2019-03-27T05:52:25.919Z,7.46
2019-03-27T05:53:25.921Z,7.49
2019-03-27T05:55:18.818Z,7.46
2019-03-27T05:56:18.830Z,7.48
2019-03-27T05:58:12.226Z,7.50
2019-03-27T05:59:12.228Z,7.50
2019-03-27T06:01:05.125Z,7.49
2019-03-27T06:02:05.135Z,7.45
2019-03-27T06:03:58.038Z,7.45
2019-03-27T06:04:58.042Z,7.46
2019-03-27T06:06:50.947Z,7.43
2019-03-27T06:07:50.952Z,7.42
2019-03-27T06:09:43.859Z,7.40
2019-03-27T06:10:43.860Z,7.43
2019-03-27T06:12:36.769Z,7.52
2019-03-27T06:13:36.765Z,7.43
2019-03-27T06:15:29.661Z,7.32
2019-03-27T06:16:29.671Z,7.39
2019-03-27T06:18:22.579Z,7.49
2019-03-27T06:19:22.579Z,7.48
2019-03-27T06:21:15.479Z,7.49
2019-03-27T06:22:15.489Z,7.48
2019-03-27T06:24:08.394Z,7.49
2019-03-27T06:25:08.396Z,7.52
2019-03-27T06:27:01.300Z,7.50
2019-03-27T06:28:01.303Z,7.68
2019-03-27T06:29:54.202Z,7.69
2019-03-27T06:30:54.212Z,7.75
2019-03-27T06:32:47.119Z,7.85
2019-03-27T06:33:47.120Z,7.80
2019-03-27T06:35:40.519Z,7.77
2019-03-27T06:36:40.524Z,7.80
2019-03-27T06:38:33.431Z,7.87
2019-03-27T06:39:33.432Z,7.82
2019-03-27T06:41:26.338Z,7.89
2019-03-27T06:42:26.340Z,8.00
2019-03-27T06:44:19.239Z,8.18
2019-03-27T06:45:19.249Z,8.20
2019-03-27T06:47:12.163Z,8.18
2019-03-27T06:48:21.111Z,8.20
2019-03-27T06:50:05.058Z,8.28
2019-03-27T06:51:05.070Z,8.33
2019-03-27T06:52:57.982Z,8.44
2019-03-27T06:53:57.979Z,8.52
2019-03-27T06:55:50.877Z,8.45
2019-03-27T06:56:50.886Z,8.47
2019-03-27T06:58:53.865Z,8.56
2019-03-27T06:59:43.796Z,8.56
2019-03-27T07:01:36.702Z,8.44
2019-03-27T07:02:36.706Z,8.41
2019-03-27T07:04:29.605Z,8.44
2019-03-27T07:05:29.616Z,8.58
2019-03-27T07:07:22.526Z,8.73
2019-03-27T07:08:22.528Z,8.65
2019-03-27T07:10:15.429Z,8.81
2019-03-27T07:11:15.439Z,8.79
2019-03-27T07:13:08.348Z,8.89
2019-03-27T07:14:08.350Z,8.86
2019-03-27T07:16:01.252Z,8.89
2019-03-27T07:17:01.262Z,8.99
2019-03-27T07:18:54.168Z,8.94
2019-03-27T07:19:54.176Z,8.95
2019-03-27T07:21:47.079Z,8.70
2019-03-27T07:22:47.083Z,8.79
2019-03-27T07:24:39.983Z,8.89
2019-03-27T07:25:40.006Z,8.89
2019-03-27T07:27:32.903Z,8.94
2019-03-27T07:28:32.911Z,8.95
2019-03-27T07:30:26.296Z,9.13
2019-03-27T07:31:26.309Z,9.26
2019-03-27T07:33:19.218Z,9.50
2019-03-27T07:34:19.222Z,9.57
2019-03-27T07:36:12.197Z,9.71
2019-03-27T07:37:12.133Z,9.79
2019-03-27T07:39:10.892Z,9.94
2019-03-27T07:40:05.048Z,9.97
2019-03-27T07:41:57.960Z,10.05
2019-03-27T07:42:57.965Z,9.99
2019-03-27T07:44:50.864Z,9.81
2019-03-27T07:45:50.877Z,9.81
2019-03-27T07:47:43.787Z,9.60
2019-03-27T07:48:53.705Z,9.61
2019-03-27T07:50:36.695Z,9.46
2019-03-27T07:51:36.705Z,9.35
2019-03-27T07:53:29.613Z,9.42
2019-03-27T07:54:29.617Z,9.40
2019-03-27T07:56:22.517Z,9.56
2019-03-27T07:57:22.530Z,9.53
2019-03-27T07:59:15.446Z,9.68
2019-03-27T08:00:15.444Z,9.61
2019-03-27T08:02:08.355Z,9.83
2019-03-27T08:03:08.362Z,9.89
2019-03-27T08:05:01.264Z,9.87
2019-03-27T08:06:01.277Z,9.96
2019-03-27T08:07:54.190Z,10.09
2019-03-27T08:08:54.194Z,10.14
2019-03-27T08:10:47.104Z,10.11
2019-03-27T08:11:47.110Z,10.26
2019-03-27T08:13:40.023Z,10.40
2019-03-27T08:14:40.028Z,10.52
2019-03-27T08:16:32.932Z,10.48
2019-03-27T08:17:32.941Z,10.34
2019-03-27T08:19:25.848Z,10.30
2019-03-27T08:20:25.855Z,10.34
2019-03-27T08:22:18.820Z,10.41
2019-03-27T08:23:18.776Z,10.52
2019-03-27T08:25:11.676Z,10.71
2019-03-27T08:26:11.688Z,10.91
2019-03-27T08:28:04.598Z,10.92
2019-03-27T08:29:04.603Z,10.74
2019-03-27T08:30:57.509Z,10.63
2019-03-27T08:31:57.518Z,10.55
2019-03-27T08:33:50.431Z,10.47
2019-03-27T08:34:50.434Z,10.53
2019-03-27T08:36:43.342Z,10.61
2019-03-27T08:37:43.350Z,10.56
2019-03-27T08:39:36.248Z,10.47
2019-03-27T08:40:36.260Z,10.51
2019-03-27T08:42:29.171Z,10.61
2019-03-27T08:43:29.176Z,10.60
2019-03-27T08:45:22.078Z,10.68
2019-03-27T08:46:22.090Z,10.73
2019-03-27T08:48:14.999Z,10.55
2019-03-27T08:49:21.999Z,10.38
2019-03-27T08:51:07.907Z,10.38
2019-03-27T08:52:07.923Z,10.42
2019-03-27T08:54:00.834Z,10.51
2019-03-27T08:55:00.841Z,10.26
2019-03-27T08:56:53.752Z,10.29
2019-03-27T08:57:53.758Z,10.26
2019-03-27T08:59:46.658Z,10.29
2019-03-27T09:00:46.671Z,10.30
2019-03-27T09:02:39.580Z,10.61
2019-03-27T09:03:39.583Z,10.64
2019-03-27T09:05:32.486Z,10.73
2019-03-27T09:06:33.851Z,10.76
2019-03-27T09:08:25.404Z,10.78
2019-03-27T09:09:25.411Z,10.89
2019-03-27T09:11:18.315Z,11.02
2019-03-27T09:12:18.325Z,11.06
2019-03-27T09:14:11.249Z,11.15
2019-03-27T09:15:11.244Z,11.29
2019-03-27T09:17:04.153Z,11.39
2019-03-27T09:18:04.154Z,11.52
2019-03-27T09:19:57.056Z,11.57
2019-03-27T09:20:57.069Z,11.58
2019-03-27T09:22:49.984Z,11.64
2019-03-27T09:23:49.986Z,11.60
2019-03-27T09:25:42.892Z,11.72
2019-03-27T09:26:42.905Z,11.86
2019-03-27T09:28:35.818Z,12.05
2019-03-27T09:29:35.824Z,12.17
2019-03-27T09:31:28.728Z,12.24
2019-03-27T09:32:28.745Z,12.34
2019-03-27T09:34:21.654Z,12.49
2019-03-27T09:35:21.659Z,12.64
2019-03-27T09:37:14.572Z,12.67
2019-03-27T09:38:14.579Z,12.54
2019-03-27T09:40:07.484Z,12.23
2019-03-27T09:41:07.496Z,12.12
2019-03-27T09:43:00.412Z,12.01
2019-03-27T09:44:00.419Z,11.95
2019-03-27T09:45:53.326Z,12.07
2019-03-27T09:46:53.340Z,12.12
2019-03-27T09:48:46.254Z,12.32
2019-03-27T09:49:49.910Z,12.29
2019-03-27T09:51:39.166Z,12.29
2019-03-27T09:52:39.179Z,12.35
2019-03-27T09:54:32.096Z,12.59
2019-03-27T09:55:32.101Z,12.67
2019-03-27T09:57:25.017Z,12.87
2019-03-27T09:58:25.021Z,13.00
2019-03-27T10:00:17.929Z,13.03
2019-03-27T10:01:17.941Z,13.12
2019-03-27T10:03:10.858Z,12.89
2019-03-27T10:04:10.865Z,12.93
2019-03-27T10:06:03.770Z,12.89
2019-03-27T10:07:03.785Z,12.78
2019-03-27T10:08:56.702Z,12.54
2019-03-27T10:09:56.711Z,12.56
2019-03-27T10:11:49.621Z,12.82
2019-03-27T10:12:49.634Z,12.87
2019-03-27T10:14:42.553Z,12.82
2019-03-27T10:15:42.562Z,12.89
2019-03-27T10:17:35.474Z,12.96
2019-03-27T10:18:35.482Z,12.92
2019-03-27T10:20:28.395Z,12.79
2019-03-27T10:21:28.408Z,12.77
2019-03-27T10:23:21.321Z,12.71
2019-03-27T10:24:21.329Z,12.82
2019-03-27T10:26:14.238Z,12.97
2019-03-27T10:27:14.251Z,13.04
2019-03-27T10:29:07.167Z,13.17
2019-03-27T10:30:07.184Z,13.29
2019-03-27T10:32:00.096Z,13.54
2019-03-27T10:33:00.101Z,13.52
2019-03-27T10:34:53.025Z,13.51
2019-03-27T10:35:53.029Z,13.46
2019-03-27T10:37:45.947Z,13.41
2019-03-27T10:38:45.952Z,13.51
2019-03-27T10:40:38.864Z,13.38
2019-03-27T10:41:38.879Z,13.36
2019-03-27T10:43:31.799Z,13.42
2019-03-27T10:44:31.802Z,13.62
2019-03-27T10:46:24.711Z,13.64
2019-03-27T10:47:24.727Z,13.46
2019-03-27T10:49:17.642Z,13.04
2019-03-27T10:50:18.236Z,13.19
2019-03-27T10:52:10.565Z,13.29
2019-03-27T10:53:10.572Z,13.32
2019-03-27T10:55:03.481Z,13.57
2019-03-27T10:56:03.498Z,13.64
2019-03-27T10:57:56.414Z,13.57
2019-03-27T10:58:56.422Z,13.62
2019-03-27T11:00:49.359Z,13.78
2019-03-27T11:01:49.345Z,13.88
2019-03-27T11:03:42.263Z,14.09
2019-03-27T11:04:42.267Z,14.21
2019-03-27T11:06:35.183Z,14.40
2019-03-27T11:07:35.195Z,14.35
2019-03-27T11:09:28.109Z,14.24
2019-03-27T11:10:28.119Z,14.22
2019-03-27T11:12:21.033Z,14.25
2019-03-27T11:13:21.047Z,14.21
2019-03-27T11:15:13.949Z,14.45
2019-03-27T11:16:13.965Z,14.60
2019-03-27T11:18:06.883Z,14.83
2019-03-27T11:19:06.890Z,14.86
2019-03-27T11:20:59.801Z,14.54
2019-03-27T11:21:59.817Z,14.40
2019-03-27T11:23:52.729Z,14.22
2019-03-27T11:24:52.738Z,14.20
2019-03-27T11:26:45.648Z,14.20
2019-03-27T11:27:45.660Z,14.28
2019-03-27T11:29:38.574Z,14.42
2019-03-27T11:30:38.581Z,14.42
2019-03-27T11:32:31.500Z,14.65
2019-03-27T11:33:31.510Z,14.77
2019-03-27T11:35:24.415Z,15.02
2019-03-27T11:36:24.432Z,15.13
2019-03-27T11:38:17.346Z,14.94
2019-03-27T11:39:17.355Z,14.96
2019-03-27T11:41:12.235Z,14.75
2019-03-27T11:42:10.280Z,14.80
2019-03-27T11:44:03.196Z,14.52
2019-03-27T11:45:03.205Z,14.54
2019-03-27T11:46:56.170Z,14.65
2019-03-27T11:47:56.133Z,14.70
2019-03-27T11:49:49.103Z,14.73
2019-03-27T11:50:49.112Z,14.84
2019-03-27T11:52:42.033Z,15.07
2019-03-27T11:53:42.039Z,15.07
2019-03-27T11:55:34.957Z,15.20
2019-03-27T11:56:34.973Z,15.07
2019-03-27T11:58:27.890Z,14.96
2019-03-27T11:59:27.957Z,14.73
2019-03-27T12:01:20.809Z,13.97
2019-03-27T12:02:20.838Z,13.81
2019-03-27T12:04:13.742Z,13.77
2019-03-27T12:05:13.752Z,13.87
2019-03-27T12:07:06.661Z,13.99
2019-03-27T12:08:06.677Z,14.18
2019-03-27T12:09:59.595Z,14.47
2019-03-27T12:10:59.602Z,14.68
2019-03-27T12:12:52.514Z,14.55
2019-03-27T12:13:52.540Z,14.43
2019-03-27T12:15:45.445Z,14.43
2019-03-27T12:16:45.453Z,14.42
2019-03-27T12:18:38.373Z,14.47
2019-03-27T12:19:38.377Z,14.40
2019-03-27T12:21:31.283Z,14.39
2019-03-27T12:22:31.299Z,14.20
2019-03-27T12:24:24.215Z,14.18
2019-03-27T12:25:24.223Z,14.21
2019-03-27T12:27:17.134Z,14.24
2019-03-27T12:28:17.147Z,14.25
2019-03-27T12:30:10.066Z,14.27
2019-03-27T12:31:10.075Z,14.42
2019-03-27T12:33:02.982Z,14.51
2019-03-27T12:34:02.998Z,14.54
2019-03-27T12:35:55.914Z,14.54
2019-03-27T12:36:55.922Z,14.72
2019-03-27T12:38:48.839Z,14.77
2019-03-27T12:39:48.847Z,14.81
2019-03-27T12:41:42.252Z,14.39
2019-03-27T12:42:42.269Z,14.35
2019-03-27T12:44:35.189Z,14.40
2019-03-27T12:45:35.223Z,14.58
2019-03-27T12:47:28.106Z,14.75
2019-03-27T12:48:28.118Z,14.94
2019-03-27T12:50:21.048Z,15.06
2019-03-27T12:51:21.050Z,15.20
2019-03-27T12:53:13.961Z,15.29
2019-03-27T12:54:13.976Z,15.23
2019-03-27T12:56:07.137Z,15.25
2019-03-27T12:57:07.157Z,15.29
2019-03-27T12:59:00.641Z,15.19
2019-03-27T13:00:01.555Z,15.43
2019-03-27T13:01:52.787Z,15.39
2019-03-27T13:02:52.802Z,15.46
2019-03-27T13:04:45.721Z,15.68
2019-03-27T13:05:45.726Z,15.78
2019-03-27T13:07:49.321Z,15.69
2019-03-27T13:08:38.653Z,15.78
2019-03-27T13:10:31.570Z,15.57
2019-03-27T13:11:31.579Z,15.62
2019-03-27T13:13:24.498Z,15.39
2019-03-27T13:14:24.510Z,15.50
2019-03-27T13:16:17.434Z,15.65
2019-03-27T13:17:17.436Z,15.64
2019-03-27T13:19:10.359Z,15.60
2019-03-27T13:20:10.368Z,15.51
2019-03-27T13:22:03.283Z,15.38
2019-03-27T13:23:03.298Z,15.59
2019-03-27T13:24:56.216Z,15.59
2019-03-27T13:25:56.226Z,15.57
2019-03-27T13:27:49.181Z,15.57
2019-03-27T13:28:49.428Z,15.69
2019-03-27T13:30:42.081Z,15.78
2019-03-27T13:31:42.091Z,15.84
2019-03-27T13:33:35.011Z,15.74
2019-03-27T13:34:35.021Z,15.69
2019-03-27T13:36:27.937Z,15.56
2019-03-27T13:37:27.951Z,15.64
2019-03-27T13:39:20.866Z,15.54
2019-03-27T13:40:20.876Z,15.53
2019-03-27T13:42:13.792Z,15.51
2019-03-27T13:43:13.805Z,15.47
2019-03-27T13:45:06.727Z,15.35
2019-03-27T13:46:06.733Z,15.35
2019-03-27T13:48:00.143Z,15.29
2019-03-27T13:49:00.159Z,15.32
2019-03-27T13:50:53.078Z,15.20
2019-03-27T13:51:53.087Z,15.20
2019-03-27T13:53:45.997Z,14.96
2019-03-27T13:54:46.012Z,14.96
2019-03-27T13:56:38.939Z,14.83
2019-03-27T13:57:38.941Z,14.80
2019-03-27T13:59:31.858Z,14.83
2019-03-27T14:00:31.870Z,15.02
2019-03-27T14:02:24.781Z,15.13
2019-03-27T14:03:24.798Z,15.23
2019-03-27T14:05:17.716Z,15.32
2019-03-27T14:06:17.724Z,15.14
2019-03-27T14:08:10.634Z,15.09
2019-03-27T14:09:10.651Z,15.09
2019-03-27T14:11:03.569Z,15.10
2019-03-27T14:12:03.578Z,15.25
2019-03-27T14:14:10.327Z,15.39
2019-03-27T14:14:56.508Z,15.44
2019-03-27T14:16:49.442Z,15.59
2019-03-27T14:17:49.438Z,15.59
2019-03-27T14:19:42.355Z,15.60
2019-03-27T14:20:42.365Z,15.54
2019-03-27T14:22:35.278Z,15.62
2019-03-27T14:23:35.293Z,15.69
2019-03-27T14:25:28.710Z,15.75
2019-03-27T14:26:28.717Z,15.71
2019-03-27T14:28:21.635Z,15.82
2019-03-27T14:29:21.648Z,15.76
2019-03-27T14:31:14.568Z,15.76
2019-03-27T14:32:14.577Z,15.71
2019-03-27T14:34:07.491Z,15.69
2019-03-27T14:35:07.506Z,15.82
2019-03-27T14:37:00.428Z,15.90
2019-03-27T14:38:00.434Z,15.76
2019-03-27T14:39:53.353Z,15.86
2019-03-27T14:40:53.363Z,15.68
2019-03-27T14:42:46.769Z,15.57
2019-03-27T14:43:46.787Z,15.53
2019-03-27T14:45:39.709Z,15.60
2019-03-27T14:46:39.716Z,15.60
2019-03-27T14:48:32.638Z,15.67
2019-03-27T14:49:32.649Z,15.65
2019-03-27T14:51:25.567Z,15.67
2019-03-27T14:52:25.575Z,15.62
2019-03-27T14:54:18.499Z,15.72
2019-03-27T14:55:18.502Z,15.71
2019-03-27T14:57:11.420Z,15.69
2019-03-27T14:58:11.426Z,15.75
2019-03-27T15:00:04.340Z,15.67
2019-03-27T15:01:04.355Z,15.76
2019-03-27T15:02:57.270Z,15.69
2019-03-27T15:03:57.281Z,15.69
2019-03-27T15:05:50.195Z,15.76
2019-03-27T15:06:50.203Z,15.68
2019-03-27T15:08:43.114Z,15.60
2019-03-27T15:09:43.130Z,15.67
2019-03-27T15:11:36.049Z,15.60
2019-03-27T15:12:36.059Z,15.62
2019-03-27T15:14:29.463Z,15.41
2019-03-27T15:15:29.478Z,15.39
2019-03-27T15:17:22.886Z,15.43
2019-03-27T15:18:22.899Z,15.46
2019-03-27T15:20:16.068Z,15.34
2019-03-27T15:21:15.824Z,15.27
2019-03-27T15:23:08.740Z,15.17
2019-03-27T15:24:08.749Z,15.09
2019-03-27T15:26:01.667Z,14.77
2019-03-27T15:27:01.676Z,14.80
2019-03-27T15:28:54.584Z,14.72
2019-03-27T15:29:54.600Z,14.72
2019-03-27T15:31:47.517Z,14.65
2019-03-27T15:32:47.522Z,14.62
2019-03-27T15:34:40.433Z,14.72
2019-03-27T15:35:40.449Z,14.65
2019-03-27T15:37:33.366Z,14.64
2019-03-27T15:38:33.371Z,14.54
2019-03-27T15:40:26.283Z,14.50
2019-03-27T15:41:26.296Z,14.50
2019-03-27T15:43:19.215Z,14.33
2019-03-27T15:44:19.236Z,14.43
2019-03-27T15:46:12.135Z,14.22
2019-03-27T15:47:12.145Z,14.22
2019-03-27T15:49:05.054Z,14.17
2019-03-27T15:50:05.067Z,14.21
2019-03-27T15:51:58.477Z,14.21
2019-03-27T15:52:58.486Z,14.20
2019-03-27T15:54:51.393Z,14.17
2019-03-27T15:55:51.407Z,14.09
2019-03-27T15:57:44.324Z,14.10
2019-03-27T15:58:44.332Z,14.15
2019-03-27T16:00:37.465Z,14.15
2019-03-27T16:01:37.358Z,14.15
2019-03-27T16:03:30.272Z,14.03
2019-03-27T16:04:30.279Z,14.00
2019-03-27T16:06:23.194Z,13.96
2019-03-27T16:07:23.204Z,13.87
2019-03-27T16:09:16.605Z,13.84
2019-03-27T16:10:18.341Z,13.79
2019-03-27T16:12:09.536Z,13.77
2019-03-27T16:13:09.541Z,13.71
2019-03-27T16:15:02.449Z,13.78
2019-03-27T16:16:02.470Z,13.79
2019-03-27T16:17:55.378Z,13.79
2019-03-27T16:18:55.387Z,13.75
2019-03-27T16:20:48.361Z,13.85
2019-03-27T16:21:48.320Z,13.89
2019-03-27T16:23:41.217Z,13.97
2019-03-27T16:24:41.228Z,13.99
2019-03-27T16:26:34.141Z,14.17
2019-03-27T16:27:34.153Z,14.18
2019-03-27T16:29:27.084Z,14.17
2019-03-27T16:30:27.074Z,14.17
2019-03-27T16:32:19.987Z,14.06
2019-03-27T16:33:20.016Z,13.97
2019-03-27T16:35:12.906Z,14.06
2019-03-27T16:36:12.973Z,13.95
2019-03-27T16:38:06.328Z,13.89
2019-03-27T16:39:06.346Z,13.77
2019-03-27T16:40:59.243Z,13.64
2019-03-27T16:41:59.256Z,13.73
2019-03-27T16:43:52.236Z,13.75
2019-03-27T16:44:52.206Z,13.81
2019-03-27T16:46:45.157Z,13.78
2019-03-27T16:47:45.123Z,13.67
2019-03-27T16:49:38.030Z,13.78
2019-03-27T16:50:38.044Z,13.75
2019-03-27T16:52:30.962Z,13.71
2019-03-27T16:53:30.975Z,13.85
2019-03-27T16:55:23.846Z,13.81
2019-03-27T16:56:23.896Z,13.84
2019-03-27T16:58:16.855Z,13.75
2019-03-27T16:59:16.777Z,13.78
2019-03-27T17:01:09.682Z,13.77
2019-03-27T17:02:09.693Z,13.78
2019-03-27T17:04:02.610Z,13.66
2019-03-27T17:05:02.615Z,13.59
2019-03-27T17:06:55.529Z,13.60
2019-03-27T17:07:55.561Z,13.52
2019-03-27T17:09:48.443Z,13.52
2019-03-27T17:10:48.455Z,13.55
2019-03-27T17:12:41.376Z,13.49
2019-03-27T17:13:41.380Z,13.44
2019-03-27T17:15:34.286Z,13.45
2019-03-27T17:16:34.300Z,13.46
2019-03-27T17:18:28.286Z,13.51
2019-03-27T17:19:27.226Z,13.66
2019-03-27T17:21:20.125Z,13.63
2019-03-27T17:22:20.235Z,13.70
2019-03-27T17:24:13.045Z,13.59
2019-03-27T17:25:13.053Z,13.66
2019-03-27T17:27:05.964Z,13.67
2019-03-27T17:28:06.073Z,13.62
2019-03-27T17:29:58.880Z,13.54
2019-03-27T17:30:58.896Z,13.64
2019-03-27T17:32:51.814Z,13.60
2019-03-27T17:33:51.823Z,13.59
2019-03-27T17:35:44.728Z,13.62
2019-03-27T17:36:44.746Z,13.57
2019-03-27T17:38:37.657Z,13.49
2019-03-27T17:39:37.668Z,13.49
2019-03-27T17:41:31.576Z,13.45
2019-03-27T17:42:31.584Z,13.57
2019-03-27T17:44:24.495Z,13.57
2019-03-27T17:45:24.503Z,13.52
2019-03-27T17:47:17.420Z,13.59
2019-03-27T17:48:17.422Z,13.69
2019-03-27T17:50:10.341Z,13.69
2019-03-27T17:51:10.356Z,13.57
2019-03-27T17:53:03.264Z,13.69
2019-03-27T17:54:03.271Z,13.67
2019-03-27T17:55:56.175Z,13.70
2019-03-27T17:56:56.192Z,13.59
2019-03-27T17:58:49.102Z,13.75
2019-03-27T17:59:49.106Z,13.77
2019-03-27T18:01:42.014Z,13.70
2019-03-27T18:02:42.107Z,13.70
2019-03-27T18:04:34.938Z,13.71
2019-03-27T18:05:34.945Z,13.62
2019-03-27T18:07:27.857Z,13.67
2019-03-27T18:08:27.866Z,13.66
2019-03-27T18:10:20.769Z,13.73
2019-03-27T18:11:20.783Z,13.75
2019-03-27T18:13:13.695Z,13.63
2019-03-27T18:14:13.700Z,13.60
2019-03-27T18:16:06.610Z,13.64
2019-03-27T18:17:06.618Z,13.66
2019-03-27T18:18:59.533Z,13.60
2019-03-27T18:19:59.540Z,13.59
2019-03-27T18:21:52.450Z,13.59
2019-03-27T18:22:52.459Z,13.59
2019-03-27T18:24:45.365Z,13.51
2019-03-27T18:25:45.379Z,13.64
2019-03-27T18:27:38.291Z,13.57
2019-03-27T18:28:38.299Z,13.57
2019-03-27T18:30:31.208Z,13.59
2019-03-27T18:31:31.218Z,13.55
2019-03-27T18:33:24.140Z,13.57
2019-03-27T18:34:24.141Z,13.57
2019-03-27T18:36:17.054Z,13.51
2019-03-27T18:37:17.062Z,13.55
2019-03-27T18:39:09.973Z,13.66
2019-03-27T18:40:10.116Z,13.55
2019-03-27T18:42:02.889Z,13.60
2019-03-27T18:43:02.899Z,13.57
2019-03-27T18:44:55.805Z,13.59
2019-03-27T18:45:55.817Z,13.63
2019-03-27T18:47:48.738Z,13.49
2019-03-27T18:48:48.735Z,13.57